Terminal Aerodrome Forecast
Issued by NWS Sioux Falls, SD

Home | Current Version | Previous Version | Text Only | Print | Product List | Glossary On
Versions: 1 2 3 4 5 6 7 8 9 10 11 12 13 14 15 16 17 18
000
FTUS43 KFSD 240537
TAFHON
TAF
KHON 240537Z 2406/2506 14013KT P6SM SCT070 OVC200
     FM240900 15013KT 6SM -SHRA BKN070
     FM241200 16013KT 6SM -SHRA BKN030
     FM241500 16013KT P6SM OVC035
     FM250000 09010KT P6SM -RA OVC025=

USA.gov is the U.S. government's official web portal to all federal, state and local government web resources and services.